sensor_id;sensor_type;location;lat;lon;timestamp;pressure;altitude;pressure_sealevel;temperature;humidity
23118;BME280;11728;50.624;6.014;2023-04-24T00:05:01;96938.16;;;10.39;81.55
23118;BME280;11728;50.624;6.014;2023-04-24T00:10:23;96940.06;;;10.36;81.45
23118;BME280;11728;50.624;6.014;2023-04-24T00:15:44;96943.41;;;10.19;81.30
23118;BME280;11728;50.624;6.014;2023-04-24T00:21:04;96946.72;;;9.83;81.95
23118;BME280;11728;50.624;6.014;2023-04-24T00:26:25;96965.59;;;9.51;81.86
23118;BME280;11728;50.624;6.014;2023-04-24T00:31:46;96962.41;;;9.43;81.88
23118;BME280;11728;50.624;6.014;2023-04-24T00:37:07;96964.47;;;9.35;81.58
23118;BME280;11728;50.624;6.014;2023-04-24T00:42:27;96954.13;;;9.31;81.64
23118;BME280;11728;50.624;6.014;2023-04-24T00:47:48;96958.09;;;9.19;81.59
23118;BME280;11728;50.624;6.014;2023-04-24T00:53:10;96970.25;;;9.23;82.32
23118;BME280;11728;50.624;6.014;2023-04-24T00:58:31;96969.00;;;9.32;81.65
23118;BME280;11728;50.624;6.014;2023-04-24T01:03:52;96981.19;;;9.34;81.39
23118;BME280;11728;50.624;6.014;2023-04-24T01:09:14;96968.84;;;9.36;81.09
23118;BME280;11728;50.624;6.014;2023-04-24T01:14:36;96978.69;;;9.31;80.73
23118;BME280;11728;50.624;6.014;2023-04-24T01:19:57;96970.00;;;9.29;80.95
23118;BME280;11728;50.624;6.014;2023-04-24T01:25:18;96969.31;;;9.24;80.72
23118;BME280;11728;50.624;6.014;2023-04-24T01:30:38;96966.63;;;9.26;81.24
23118;BME280;11728;50.624;6.014;2023-04-24T01:35:59;96963.00;;;9.28;80.93
23118;BME280;11728;50.624;6.014;2023-04-24T01:41:20;96965.53;;;9.31;80.95
23118;BME280;11728;50.624;6.014;2023-04-24T01:46:41;96959.69;;;9.23;80.88
23118;BME280;11728;50.624;6.014;2023-04-24T01:52:02;96969.69;;;9.16;81.54
23118;BME280;11728;50.624;6.014;2023-04-24T01:57:23;96968.63;;;9.19;81.62
23118;BME280;11728;50.624;6.014;2023-04-24T02:02:44;96961.78;;;9.16;81.84
23118;BME280;11728;50.624;6.014;2023-04-24T02:08:05;96965.31;;;9.15;81.67
23118;BME280;11728;50.624;6.014;2023-04-24T02:13:26;96969.53;;;9.18;82.22
23118;BME280;11728;50.624;6.014;2023-04-24T02:18:46;96959.94;;;9.18;81.92
23118;BME280;11728;50.624;6.014;2023-04-24T02:24:07;96975.97;;;9.12;82.66
23118;BME280;11728;50.624;6.014;2023-04-24T02:29:28;96968.13;;;9.10;82.57
23118;BME280;11728;50.624;6.014;2023-04-24T02:34:49;96966.41;;;9.09;82.82
23118;BME280;11728;50.624;6.014;2023-04-24T02:40:09;96975.44;;;9.02;83.75
23118;BME280;11728;50.624;6.014;2023-04-24T02:45:30;96967.56;;;9.02;83.90
23118;BME280;11728;50.624;6.014;2023-04-24T02:50:51;96965.09;;;8.98;84.30
23118;BME280;11728;50.624;6.014;2023-04-24T02:56:12;96976.44;;;9.00;85.17
23118;BME280;11728;50.624;6.014;2023-04-24T03:01:33;96984.91;;;9.08;84.83
23118;BME280;11728;50.624;6.014;2023-04-24T03:06:54;96980.88;;;8.98;86.54
23118;BME280;11728;50.624;6.014;2023-04-24T03:12:15;96984.97;;;8.83;88.30
23118;BME280;11728;50.624;6.014;2023-04-24T03:17:38;96978.16;;;8.78;89.20
23118;BME280;11728;50.624;6.014;2023-04-24T03:22:59;96979.94;;;8.77;89.43
23118;BME280;11728;50.624;6.014;2023-04-24T03:28:19;96990.63;;;8.73;90.39
23118;BME280;11728;50.624;6.014;2023-04-24T03:33:40;96989.22;;;8.63;91.11
23118;BME280;11728;50.624;6.014;2023-04-24T03:39:01;96996.16;;;8.65;91.16
23118;BME280;11728;50.624;6.014;2023-04-24T03:44:22;96983.72;;;8.69;90.91
23118;BME280;11728;50.624;6.014;2023-04-24T03:49:43;96995.06;;;8.71;90.97
23118;BME280;11728;50.624;6.014;2023-04-24T03:55:04;96984.31;;;8.77;90.85
23118;BME280;11728;50.624;6.014;2023-04-24T04:00:24;96983.47;;;8.76;90.59
23118;BME280;11728;50.624;6.014;2023-04-24T04:05:46;96986.13;;;8.75;90.35
23118;BME280;11728;50.624;6.014;2023-04-24T04:11:07;96979.28;;;8.71;90.81
23118;BME280;11728;50.624;6.014;2023-04-24T04:16:28;96982.00;;;8.68;91.03
23118;BME280;11728;50.624;6.014;2023-04-24T04:21:49;97003.97;;;8.67;90.68
23118;BME280;11728;50.624;6.014;2023-04-24T04:27:13;96997.88;;;8.66;90.80
23118;BME280;11728;50.624;6.014;2023-04-24T04:32:34;97001.47;;;8.64;90.96
23118;BME280;11728;50.624;6.014;2023-04-24T04:37:55;97004.16;;;8.62;91.14
23118;BME280;11728;50.624;6.014;2023-04-24T04:43:19;97006.03;;;8.59;91.93
23118;BME280;11728;50.624;6.014;2023-04-24T04:48:40;97008.28;;;8.45;93.23
23118;BME280;11728;50.624;6.014;2023-04-24T04:54:00;97020.16;;;8.32;94.61
23118;BME280;11728;50.624;6.014;2023-04-24T04:59:21;97016.31;;;8.16;96.30
23118;BME280;11728;50.624;6.014;2023-04-24T05:04:42;97038.50;;;8.08;97.96
23118;BME280;11728;50.624;6.014;2023-04-24T05:10:03;97056.22;;;8.01;100.00
23118;BME280;11728;50.624;6.014;2023-04-24T05:15:24;97059.59;;;8.05;100.00
23118;BME280;11728;50.624;6.014;2023-04-24T05:20:44;97056.22;;;8.01;100.00
23118;BME280;11728;50.624;6.014;2023-04-24T05:26:05;97050.66;;;8.10;100.00
23118;BME280;11728;50.624;6.014;2023-04-24T05:31:26;97041.69;;;8.17;100.00
23118;BME280;11728;50.624;6.014;2023-04-24T05:36:47;97046.28;;;8.11;100.00
23118;BME280;11728;50.624;6.014;2023-04-24T05:42:08;97070.94;;;8.07;100.00
23118;BME280;11728;50.624;6.014;2023-04-24T05:47:29;97074.44;;;8.07;100.00
23118;BME280;11728;50.624;6.014;2023-04-24T05:52:50;97081.53;;;8.04;100.00
23118;BME280;11728;50.624;6.014;2023-04-24T05:58:11;97089.47;;;8.02;100.00
23118;BME280;11728;50.624;6.014;2023-04-24T06:03:32;97092.03;;;8.05;100.00
23118;BME280;11728;50.624;6.014;2023-04-24T06:08:53;97109.53;;;8.06;100.00
23118;BME280;11728;50.624;6.014;2023-04-24T06:14:14;97131.47;;;8.04;100.00
23118;BME280;11728;50.624;6.014;2023-04-24T06:19:35;97143.63;;;8.08;100.00
23118;BME280;11728;50.624;6.014;2023-04-24T06:24:55;97139.22;;;8.08;100.00
23118;BME280;11728;50.624;6.014;2023-04-24T06:30:16;97133.78;;;8.14;100.00
23118;BME280;11728;50.624;6.014;2023-04-24T06:35:37;97151.22;;;8.18;100.00
23118;BME280;11728;50.624;6.014;2023-04-24T06:40:58;97141.47;;;8.22;100.00
23118;BME280;11728;50.624;6.014;2023-04-24T06:46:19;97163.34;;;8.22;100.00
23118;BME280;11728;50.624;6.014;2023-04-24T06:51:42;97179.03;;;8.25;100.00
23118;BME280;11728;50.624;6.014;2023-04-24T06:57:03;97182.56;;;8.24;100.00
23118;BME280;11728;50.624;6.014;2023-04-24T07:02:25;97194.81;;;8.25;100.00
23118;BME280;11728;50.624;6.014;2023-04-24T07:07:49;97196.53;;;8.26;100.00
23118;BME280;11728;50.624;6.014;2023-04-24T07:13:10;97187.75;;;8.27;100.00
23118;BME280;11728;50.624;6.014;2023-04-24T07:18:31;97207.75;;;8.31;100.00
23118;BME280;11728;50.624;6.014;2023-04-24T07:23:52;97228.00;;;8.29;100.00
23118;BME280;11728;50.624;6.014;2023-04-24T07:29:13;97252.66;;;8.25;100.00
23118;BME280;11728;50.624;6.014;2023-04-24T07:34:35;97258.81;;;8.24;100.00
23118;BME280;11728;50.624;6.014;2023-04-24T07:39:55;97269.53;;;8.18;100.00
23118;BME280;11728;50.624;6.014;2023-04-24T07:45:16;97280.00;;;8.20;100.00
23118;BME280;11728;50.624;6.014;2023-04-24T07:50:37;97281.50;;;8.28;100.00
23118;BME280;11728;50.624;6.014;2023-04-24T07:55:58;97284.13;;;8.28;100.00
23118;BME280;11728;50.624;6.014;2023-04-24T08:01:19;97292.81;;;8.30;100.00
23118;BME280;11728;50.624;6.014;2023-04-24T08:06:40;97291.00;;;8.32;100.00
23118;BME280;11728;50.624;6.014;2023-04-24T08:12:01;97301.53;;;8.32;100.00
23118;BME280;11728;50.624;6.014;2023-04-24T08:17:23;97307.50;;;8.37;100.00
23118;BME280;11728;50.624;6.014;2023-04-24T08:22:44;97317.03;;;8.41;100.00
23118;BME280;11728;50.624;6.014;2023-04-24T08:28:09;97330.00;;;8.47;100.00
23118;BME280;11728;50.624;6.014;2023-04-24T08:33:30;97333.22;;;8.56;100.00
23118;BME280;11728;50.624;6.014;2023-04-24T08:39:01;97354.81;;;8.67;100.00
23118;BME280;11728;50.624;6.014;2023-04-24T08:44:22;97355.19;;;8.83;100.00
23118;BME280;11728;50.624;6.014;2023-04-24T08:49:43;97368.13;;;8.90;100.00
23118;BME280;11728;50.624;6.014;2023-04-24T08:55:05;97375.00;;;8.96;100.00
23118;BME280;11728;50.624;6.014;2023-04-24T09:00:26;97387.22;;;8.97;100.00
23118;BME280;11728;50.624;6.014;2023-04-24T09:05:48;97392.41;;;9.00;100.00
23118;BME280;11728;50.624;6.014;2023-04-24T09:11:11;97394.91;;;9.04;100.00
23118;BME280;11728;50.624;6.014;2023-04-24T09:16:32;97405.13;;;8.86;100.00
23118;BME280;11728;50.624;6.014;2023-04-24T09:21:53;97407.13;;;8.78;100.00
23118;BME280;11728;50.624;6.014;2023-04-24T09:27:14;97412.56;;;8.72;100.00
23118;BME280;11728;50.624;6.014;2023-04-24T09:32:37;97421.69;;;8.89;100.00
23118;BME280;11728;50.624;6.014;2023-04-24T09:37:58;97440.06;;;8.91;100.00
23118;BME280;11728;50.624;6.014;2023-04-24T09:43:19;97439.72;;;9.03;100.00
23118;BME280;11728;50.624;6.014;2023-04-24T09:48:39;97451.41;;;9.21;100.00
23118;BME280;11728;50.624;6.014;2023-04-24T09:54:00;97438.94;;;9.54;100.00
23118;BME280;11728;50.624;6.014;2023-04-24T09:59:21;97451.53;;;9.44;100.00
23118;BME280;11728;50.624;6.014;2023-04-24T10:04:54;97467.16;;;9.23;100.00
23118;BME280;11728;50.624;6.014;2023-04-24T10:10:16;97470.09;;;9.14;100.00
23118;BME280;11728;50.624;6.014;2023-04-24T10:15:38;97471.44;;;8.98;100.00
23118;BME280;11728;50.624;6.014;2023-04-24T10:21:00;97478.91;;;9.12;100.00
23118;BME280;11728;50.624;6.014;2023-04-24T10:26:22;97497.53;;;9.06;100.00
23118;BME280;11728;50.624;6.014;2023-04-24T10:31:43;97485.56;;;9.23;100.00
23118;BME280;11728;50.624;6.014;2023-04-24T10:37:07;97496.47;;;9.40;100.00
23118;BME280;11728;50.624;6.014;2023-04-24T10:42:28;97507.09;;;9.64;100.00
23118;BME280;11728;50.624;6.014;2023-04-24T10:48:05;97501.59;;;9.99;99.69
23118;BME280;11728;50.624;6.014;2023-04-24T10:53:31;97500.66;;;10.74;98.33
23118;BME280;11728;50.624;6.014;2023-04-24T10:58:53;97498.19;;;10.94;95.89
23118;BME280;11728;50.624;6.014;2023-04-24T11:04:29;97506.41;;;10.63;95.30
23118;BME280;11728;50.624;6.014;2023-04-24T11:10:00;97509.72;;;10.68;95.54
23118;BME280;11728;50.624;6.014;2023-04-24T11:15:21;97517.97;;;10.59;94.71
23118;BME280;11728;50.624;6.014;2023-04-24T11:20:43;97512.31;;;10.69;94.51
23118;BME280;11728;50.624;6.014;2023-04-24T11:26:12;97511.56;;;10.90;93.93
23118;BME280;11728;50.624;6.014;2023-04-24T11:31:38;97502.97;;;12.57;90.38
23118;BME280;11728;50.624;6.014;2023-04-24T11:36:59;97510.78;;;12.60;87.56
23118;BME280;11728;50.624;6.014;2023-04-24T11:42:24;97525.50;;;11.62;86.08
23118;BME280;11728;50.624;6.014;2023-04-24T11:47:45;97547.56;;;10.92;85.78
23118;BME280;11728;50.624;6.014;2023-04-24T11:53:06;97555.75;;;10.61;85.21
23118;BME280;11728;50.624;6.014;2023-04-24T11:58:27;97565.00;;;10.96;85.46
23118;BME280;11728;50.624;6.014;2023-04-24T12:03:49;97542.69;;;13.55;81.30
23118;BME280;11728;50.624;6.014;2023-04-24T12:09:11;97549.25;;;13.28;78.58
23118;BME280;11728;50.624;6.014;2023-04-24T12:14:32;97558.91;;;12.91;77.97
23118;BME280;11728;50.624;6.014;2023-04-24T12:19:57;97567.03;;;12.26;76.66
23118;BME280;11728;50.624;6.014;2023-04-24T12:25:19;97568.38;;;12.14;76.84
23118;BME280;11728;50.624;6.014;2023-04-24T12:30:42;97563.56;;;13.63;75.57
23118;BME280;11728;50.624;6.014;2023-04-24T12:36:09;97549.47;;;15.19;69.67
23118;BME280;11728;50.624;6.014;2023-04-24T12:41:30;97560.94;;;14.70;69.53
23118;BME280;11728;50.624;6.014;2023-04-24T12:46:51;97565.19;;;13.47;70.11
23118;BME280;11728;50.624;6.014;2023-04-24T12:52:13;97587.66;;;12.59;71.32
23118;BME280;11728;50.624;6.014;2023-04-24T12:57:35;97589.91;;;12.05;72.08
23118;BME280;11728;50.624;6.014;2023-04-24T13:02:56;97586.66;;;13.22;70.01
23118;BME280;11728;50.624;6.014;2023-04-24T13:08:16;97594.25;;;13.68;67.38
23118;BME280;11728;50.624;6.014;2023-04-24T13:13:37;97593.88;;;12.99;67.05
23118;BME280;11728;50.624;6.014;2023-04-24T13:18:58;97593.63;;;12.42;68.86
23118;BME280;11728;50.624;6.014;2023-04-24T13:24:19;97601.06;;;12.13;70.16
23118;BME280;11728;50.624;6.014;2023-04-24T13:29:40;97604.53;;;12.14;71.17
23118;BME280;11728;50.624;6.014;2023-04-24T13:35:01;97604.00;;;13.29;70.22
23118;BME280;11728;50.624;6.014;2023-04-24T13:40:22;97584.84;;;15.04;66.34
23118;BME280;11728;50.624;6.014;2023-04-24T13:45:43;97572.78;;;14.80;62.73
23118;BME280;11728;50.624;6.014;2023-04-24T13:51:04;97590.69;;;14.24;63.03
23118;BME280;11728;50.624;6.014;2023-04-24T13:56:25;97594.38;;;13.65;63.83
23118;BME280;11728;50.624;6.014;2023-04-24T14:01:46;97585.16;;;14.81;63.17
23118;BME280;11728;50.624;6.014;2023-04-24T14:07:07;97568.94;;;15.68;60.29
23118;BME280;11728;50.624;6.014;2023-04-24T14:12:28;97561.19;;;15.32;58.80
23118;BME280;11728;50.624;6.014;2023-04-24T14:17:49;97560.88;;;15.70;58.44
23118;BME280;11728;50.624;6.014;2023-04-24T14:23:10;97557.13;;;16.20;54.89
23118;BME280;11728;50.624;6.014;2023-04-24T14:28:32;97555.25;;;15.43;54.49
23118;BME280;11728;50.624;6.014;2023-04-24T14:33:52;97563.06;;;14.45;55.95
23118;BME280;11728;50.624;6.014;2023-04-24T14:39:13;97574.81;;;13.68;57.50
23118;BME280;11728;50.624;6.014;2023-04-24T14:44:34;97575.53;;;13.53;58.35
23118;BME280;11728;50.624;6.014;2023-04-24T14:49:55;97582.63;;;13.14;59.15
23118;BME280;11728;50.624;6.014;2023-04-24T14:55:16;97575.63;;;12.93;59.71
23118;BME280;11728;50.624;6.014;2023-04-24T15:00:37;97586.69;;;12.81;60.48
23118;BME280;11728;50.624;6.014;2023-04-24T15:05:57;97584.94;;;12.60;61.43
23118;BME280;11728;50.624;6.014;2023-04-24T15:11:18;97593.47;;;12.47;62.12
23118;BME280;11728;50.624;6.014;2023-04-24T15:16:39;97604.94;;;12.47;63.22
23118;BME280;11728;50.624;6.014;2023-04-24T15:22:00;97603.38;;;12.42;64.76
23118;BME280;11728;50.624;6.014;2023-04-24T15:27:21;97609.22;;;12.28;66.70
23118;BME280;11728;50.624;6.014;2023-04-24T15:32:41;97617.81;;;11.91;69.26
23118;BME280;11728;50.624;6.014;2023-04-24T15:38:02;97625.41;;;11.54;71.89
23118;BME280;11728;50.624;6.014;2023-04-24T15:43:24;97623.59;;;11.56;72.89
23118;BME280;11728;50.624;6.014;2023-04-24T15:48:45;97620.09;;;11.31;73.96
23118;BME280;11728;50.624;6.014;2023-04-24T15:54:06;97616.66;;;11.29;74.43
23118;BME280;11728;50.624;6.014;2023-04-24T15:59:26;97614.81;;;11.31;74.46
23118;BME280;11728;50.624;6.014;2023-04-24T16:04:49;97599.28;;;11.69;76.30
23118;BME280;11728;50.624;6.014;2023-04-24T16:10:10;97610.44;;;11.99;77.00
23118;BME280;11728;50.624;6.014;2023-04-24T16:15:32;97609.38;;;12.26;76.88
23118;BME280;11728;50.624;6.014;2023-04-24T16:20:53;97612.44;;;12.78;76.90
23118;BME280;11728;50.624;6.014;2023-04-24T16:26:14;97618.19;;;12.67;76.43
23118;BME280;11728;50.624;6.014;2023-04-24T16:31:35;97624.13;;;12.52;76.18
23118;BME280;11728;50.624;6.014;2023-04-24T16:36:56;97619.19;;;12.43;77.24
23118;BME280;11728;50.624;6.014;2023-04-24T16:42:17;97619.97;;;12.88;75.46
23118;BME280;11728;50.624;6.014;2023-04-24T16:47:37;97621.28;;;12.35;74.72
23118;BME280;11728;50.624;6.014;2023-04-24T16:52:58;97623.16;;;12.12;75.06
23118;BME280;11728;50.624;6.014;2023-04-24T16:58:19;97626.75;;;11.88;74.70
23118;BME280;11728;50.624;6.014;2023-04-24T17:03:40;97631.28;;;11.62;74.88
23118;BME280;11728;50.624;6.014;2023-04-24T17:09:01;97638.84;;;11.48;75.57
23118;BME280;11728;50.624;6.014;2023-04-24T17:14:23;97636.50;;;11.41;76.17
23118;BME280;11728;50.624;6.014;2023-04-24T17:19:45;97649.13;;;11.33;77.20
23118;BME280;11728;50.624;6.014;2023-04-24T17:25:06;97647.72;;;11.23;78.84
23118;BME280;11728;50.624;6.014;2023-04-24T17:30:27;97644.59;;;11.12;80.20
23118;BME280;11728;50.624;6.014;2023-04-24T17:35:48;97640.16;;;11.12;80.57
23118;BME280;11728;50.624;6.014;2023-04-24T17:41:09;97642.13;;;11.07;80.73
23118;BME280;11728;50.624;6.014;2023-04-24T17:46:30;97645.50;;;11.11;81.21
23118;BME280;11728;50.624;6.014;2023-04-24T17:51:51;97650.84;;;11.09;81.30
23118;BME280;11728;50.624;6.014;2023-04-24T17:57:12;97643.84;;;11.08;81.32
23118;BME280;11728;50.624;6.014;2023-04-24T18:02:32;97654.66;;;11.01;81.63
23118;BME280;11728;50.624;6.014;2023-04-24T18:07:53;97658.38;;;10.95;81.90
23118;BME280;11728;50.624;6.014;2023-04-24T18:13:14;97659.41;;;10.91;82.04
23118;BME280;11728;50.624;6.014;2023-04-24T18:18:35;97657.59;;;10.93;82.15
23118;BME280;11728;50.624;6.014;2023-04-24T18:23:56;97660.31;;;10.90;82.54
23118;BME280;11728;50.624;6.014;2023-04-24T18:29:19;97668.44;;;10.84;82.71
23118;BME280;11728;50.624;6.014;2023-04-24T18:34:40;97671.41;;;10.75;82.92
23118;BME280;11728;50.624;6.014;2023-04-24T18:40:01;97676.19;;;10.65;83.00
23118;BME280;11728;50.624;6.014;2023-04-24T18:45:23;97680.53;;;10.66;82.95
23118;BME280;11728;50.624;6.014;2023-04-24T18:50:43;97691.09;;;10.66;82.74
23118;BME280;11728;50.624;6.014;2023-04-24T18:56:04;97691.06;;;10.67;82.59
23118;BME280;11728;50.624;6.014;2023-04-24T19:01:25;97697.31;;;10.65;82.78
23118;BME280;11728;50.624;6.014;2023-04-24T19:06:46;97708.38;;;10.75;82.69
23118;BME280;11728;50.624;6.014;2023-04-24T19:12:07;97714.09;;;10.62;82.45
23118;BME280;11728;50.624;6.014;2023-04-24T19:17:28;97719.63;;;10.55;82.53
23118;BME280;11728;50.624;6.014;2023-04-24T19:22:49;97726.06;;;10.46;81.77
23118;BME280;11728;50.624;6.014;2023-04-24T19:28:10;97733.31;;;10.40;81.67
23118;BME280;11728;50.624;6.014;2023-04-24T19:33:31;97738.00;;;10.30;81.56
23118;BME280;11728;50.624;6.014;2023-04-24T19:38:52;97745.34;;;10.21;81.32
23118;BME280;11728;50.624;6.014;2023-04-24T19:44:13;97745.41;;;10.18;80.92
23118;BME280;11728;50.624;6.014;2023-04-24T19:49:35;97743.59;;;10.20;80.31
23118;BME280;11728;50.624;6.014;2023-04-24T19:54:55;97741.09;;;10.15;79.59
23118;BME280;11728;50.624;6.014;2023-04-24T20:00:16;97741.28;;;10.09;79.35
23118;BME280;11728;50.624;6.014;2023-04-24T20:05:37;97745.78;;;10.06;79.22
23118;BME280;11728;50.624;6.014;2023-04-24T20:10:58;97738.13;;;9.95;79.50
23118;BME280;11728;50.624;6.014;2023-04-24T20:16:19;97741.09;;;9.85;79.50
23118;BME280;11728;50.624;6.014;2023-04-24T20:21:39;97741.19;;;9.82;79.56
23118;BME280;11728;50.624;6.014;2023-04-24T20:27:00;97738.56;;;9.82;79.26
23118;BME280;11728;50.624;6.014;2023-04-24T20:32:21;97732.38;;;9.83;79.34
23118;BME280;11728;50.624;6.014;2023-04-24T20:37:42;97743.81;;;9.82;79.16
23118;BME280;11728;50.624;6.014;2023-04-24T20:43:03;97748.28;;;9.80;79.39
23118;BME280;11728;50.624;6.014;2023-04-24T20:48:24;97752.78;;;9.77;79.09
23118;BME280;11728;50.624;6.014;2023-04-24T20:53:45;97739.72;;;9.72;79.26
23118;BME280;11728;50.624;6.014;2023-04-24T20:59:08;97737.31;;;9.65;79.42
23118;BME280;11728;50.624;6.014;2023-04-24T21:04:29;97742.22;;;9.46;79.53
23118;BME280;11728;50.624;6.014;2023-04-24T21:09:53;97747.72;;;9.37;79.49
23118;BME280;11728;50.624;6.014;2023-04-24T21:15:14;97746.16;;;9.30;79.78
23118;BME280;11728;50.624;6.014;2023-04-24T21:20:35;97758.38;;;9.33;79.90
23118;BME280;11728;50.624;6.014;2023-04-24T21:25:56;97749.41;;;9.40;79.86
23118;BME280;11728;50.624;6.014;2023-04-24T21:31:17;97752.00;;;9.41;79.61
23118;BME280;11728;50.624;6.014;2023-04-24T21:36:38;97746.59;;;9.46;79.75
23118;BME280;11728;50.624;6.014;2023-04-24T21:41:58;97742.22;;;9.46;79.98
23118;BME280;11728;50.624;6.014;2023-04-24T21:47:19;97735.16;;;9.47;79.81
23118;BME280;11728;50.624;6.014;2023-04-24T21:52:40;97724.81;;;9.41;80.36
23118;BME280;11728;50.624;6.014;2023-04-24T21:58:01;97725.66;;;9.41;80.49
23118;BME280;11728;50.624;6.014;2023-04-24T22:03:21;97737.06;;;9.42;80.87
23118;BME280;11728;50.624;6.014;2023-04-24T22:08:42;97731.81;;;9.40;80.59
23118;BME280;11728;50.624;6.014;2023-04-24T22:14:06;97728.38;;;9.38;80.39
23118;BME280;11728;50.624;6.014;2023-04-24T22:19:28;97739.16;;;9.29;80.59
23118;BME280;11728;50.624;6.014;2023-04-24T22:24:49;97735.81;;;9.23;80.88
23118;BME280;11728;50.624;6.014;2023-04-24T22:30:10;97741.97;;;9.22;80.71
23118;BME280;11728;50.624;6.014;2023-04-24T22:35:30;97747.25;;;9.22;80.62
23118;BME280;11728;50.624;6.014;2023-04-24T22:40:51;97752.63;;;9.19;80.70
23118;BME280;11728;50.624;6.014;2023-04-24T22:46:12;97750.03;;;9.18;81.61
23118;BME280;11728;50.624;6.014;2023-04-24T22:51:33;97751.88;;;9.14;81.26
23118;BME280;11728;50.624;6.014;2023-04-24T22:56:54;97748.66;;;9.03;81.55
23118;BME280;11728;50.624;6.014;2023-04-24T23:02:15;97751.22;;;9.06;81.56
23118;BME280;11728;50.624;6.014;2023-04-24T23:07:36;97755.59;;;9.06;81.65
23118;BME280;11728;50.624;6.014;2023-04-24T23:12:57;97762.03;;;8.96;81.54
23118;BME280;11728;50.624;6.014;2023-04-24T23:18:18;97762.94;;;8.93;81.79
23118;BME280;11728;50.624;6.014;2023-04-24T23:23:39;97748.19;;;8.88;81.63
23118;BME280;11728;50.624;6.014;2023-04-24T23:29:00;97749.28;;;8.78;81.70
23118;BME280;11728;50.624;6.014;2023-04-24T23:34:20;97756.44;;;8.73;81.78
23118;BME280;11728;50.624;6.014;2023-04-24T23:39:41;97738.94;;;8.70;81.45
23118;BME280;11728;50.624;6.014;2023-04-24T23:45:03;97738.94;;;8.72;81.68
23118;BME280;11728;50.624;6.014;2023-04-24T23:50:23;97733.66;;;8.70;82.62
23118;BME280;11728;50.624;6.014;2023-04-24T23:55:45;97736.41;;;8.67;83.19
